<?xml version="1.0" encoding="UTF-8"?>
<gpx  version="1.1"  creator="Verlag Esterbauer" xmlns:xsi="http://www.w3.org/2001/XMLSchema-instance" xmlns="http://www.topografix.com/GPX/1/1"  xsi:schemaLocation="http://www.topografix.com/GPX/1/1 http://www.topografix.com/GPX/1/1/gpx.xsd">
<trk>
  <name>wf-gran_T28</name>
  <trkseg>
    <trkpt lat="27.741343" lon="-15.596644">
    <time>1971-01-13T12:01:19Z</time>
    </trkpt>
    <trkpt lat="27.74108" lon="-15.596535">
    <time>1971-01-13T12:01:47Z</time>
  <cmt>extensions = 1.85</cmt>
    </trkpt>
    <trkpt lat="27.741033" lon="-15.596501">
    <time>1971-01-13T12:01:53Z</time>
  <cmt>extensions = 1.55</cmt>
    </trkpt>
    <trkpt lat="27.740755" lon="-15.596362">
    <time>1971-01-13T12:02:23Z</time>
  <cmt>extensions = 1.61</cmt>
    </trkpt>
    <trkpt lat="27.74056" lon="-15.596231">
    <time>1971-01-13T12:02:45Z</time>
  <cmt>extensions = 1.58</cmt>
    </trkpt>
    <trkpt lat="27.74052" lon="-15.596196">
    <time>1971-01-13T12:02:51Z</time>
  <cmt>extensions = 1.88</cmt>
    </trkpt>
    <trkpt lat="27.739876" lon="-15.595842">
    <time>1971-01-13T12:04:02Z</time>
  <cmt>extensions = 1.44</cmt>
    </trkpt>
    <trkpt lat="27.739819" lon="-15.595828">
    <time>1971-01-13T12:04:08Z</time>
  <cmt>extensions = 1.62</cmt>
    </trkpt>
    <trkpt lat="27.739816" lon="-15.595753">
    <time>1971-01-13T12:04:15Z</time>
  <cmt>extensions = 0.62</cmt>
    </trkpt>
    <trkpt lat="27.739609" lon="-15.595672">
    <time>1971-01-13T12:04:36Z</time>
  <cmt>extensions = 1.34</cmt>
    </trkpt>
    <trkpt lat="27.73948" lon="-15.595605">
    <time>1971-01-13T12:04:51Z</time>
  <cmt>extensions = 1.22</cmt>
    </trkpt>
    <trkpt lat="27.739418" lon="-15.595546">
    <time>1971-01-13T12:04:59Z</time>
  <cmt>extensions = 1.29</cmt>
    </trkpt>
    <trkpt lat="27.739354" lon="-15.595506">
    <time>1971-01-13T12:05:06Z</time>
  <cmt>extensions = 1.16</cmt>
    </trkpt>
    <trkpt lat="27.7393" lon="-15.595443">
    <time>1971-01-13T12:05:14Z</time>
  <cmt>extensions = 0.72</cmt>
    </trkpt>
    <trkpt lat="27.739219" lon="-15.595394">
    <time>1971-01-13T12:05:23Z</time>
  <cmt>extensions = 0.29</cmt>
    </trkpt>
    <trkpt lat="27.73915" lon="-15.595371">
    <time>1971-01-13T12:05:30Z</time>
  <cmt>extensions = 0.36</cmt>
    </trkpt>
    <trkpt lat="27.73908" lon="-15.595308">
    <time>1971-01-13T12:05:39Z</time>
  <cmt>extensions = 0.47</cmt>
    </trkpt>
    <trkpt lat="27.739045" lon="-15.595268">
    <time>1971-01-13T12:05:44Z</time>
  <cmt>extensions = 0.37</cmt>
    </trkpt>
    <trkpt lat="27.739003" lon="-15.595238">
    <time>1971-01-13T12:05:49Z</time>
  <cmt>extensions = 0.11</cmt>
    </trkpt>
    <trkpt lat="27.739026" lon="-15.595283">
    <time>1971-01-13T12:05:53Z</time>
  <cmt>extensions = 0.33</cmt>
    </trkpt>
    <trkpt lat="27.738984" lon="-15.595313">
    <time>1971-01-13T12:05:58Z</time>
  <cmt>extensions = 0.03</cmt>
    </trkpt>
    <trkpt lat="27.738954" lon="-15.595262">
    <time>1971-01-13T12:06:04Z</time>
  <cmt>extensions = 0.11</cmt>
    </trkpt>
    <trkpt lat="27.738838" lon="-15.595168">
    <time>1971-01-13T12:06:18Z</time>
  <cmt>extensions = 0.99</cmt>
    </trkpt>
    <trkpt lat="27.738762" lon="-15.595126">
    <time>1971-01-13T12:06:27Z</time>
  <cmt>extensions = 0.09</cmt>
    </trkpt>
    <trkpt lat="27.738617" lon="-15.594974">
    <time>1971-01-13T12:06:46Z</time>
  <cmt>extensions = 1.38</cmt>
    </trkpt>
    <trkpt lat="27.738311" lon="-15.594725">
    <time>1971-01-13T12:07:24Z</time>
  <cmt>extensions = 1.47</cmt>
    </trkpt>
    <trkpt lat="27.738122" lon="-15.594557">
    <time>1971-01-13T12:07:48Z</time>
  <cmt>extensions = 1.32</cmt>
    </trkpt>
    <trkpt lat="27.737974" lon="-15.594461">
    <time>1971-01-13T12:08:05Z</time>
  <cmt>extensions = 1.06</cmt>
    </trkpt>
    <trkpt lat="27.737817" lon="-15.594399">
    <time>1971-01-13T12:08:22Z</time>
  <cmt>extensions = 1.43</cmt>
    </trkpt>
    <trkpt lat="27.737689" lon="-15.594342">
    <time>1971-01-13T12:08:35Z</time>
  <cmt>extensions = 0.99</cmt>
    </trkpt>
    <trkpt lat="27.73759" lon="-15.594332">
    <time>1971-01-13T12:08:45Z</time>
  <cmt>extensions = 0.21</cmt>
    </trkpt>
    <trkpt lat="27.737456" lon="-15.594314">
    <time>1971-01-13T12:08:59Z</time>
  <cmt>extensions = 0.48</cmt>
    </trkpt>
    <trkpt lat="27.737358" lon="-15.594322">
    <time>1971-01-13T12:09:09Z</time>
  <cmt>extensions = 1.56</cmt>
    </trkpt>
    <trkpt lat="27.737087" lon="-15.59441">
    <time>1971-01-13T12:09:37Z</time>
  <cmt>extensions = 1.47</cmt>
    </trkpt>
    <trkpt lat="27.736928" lon="-15.594487">
    <time>1971-01-13T12:09:54Z</time>
  <cmt>extensions = 1.38</cmt>
    </trkpt>
    <trkpt lat="27.736873" lon="-15.594512">
    <time>1971-01-13T12:10:00Z</time>
  <cmt>extensions = 0.14</cmt>
    </trkpt>
    <trkpt lat="27.736818" lon="-15.594543">
    <time>1971-01-13T12:10:06Z</time>
  <cmt>extensions = 1.04</cmt>
    </trkpt>
    <trkpt lat="27.736786" lon="-15.594582">
    <time>1971-01-13T12:10:11Z</time>
  <cmt>extensions = 1.31</cmt>
    </trkpt>
    <trkpt lat="27.736667" lon="-15.594674">
    <time>1971-01-13T12:10:25Z</time>
  <cmt>extensions = 1.30</cmt>
    </trkpt>
    <trkpt lat="27.736498" lon="-15.59484">
    <time>1971-01-13T12:10:47Z</time>
  <cmt>extensions = 1.16</cmt>
    </trkpt>
    <trkpt lat="27.736499" lon="-15.59454">
    <time>1971-01-13T12:11:14Z</time>
  <cmt>extensions = 1.05</cmt>
    </trkpt>
    <trkpt lat="27.736579" lon="-15.59451">
    <time>1971-01-13T12:11:22Z</time>
  <cmt>extensions = 1.17</cmt>
    </trkpt>
    <trkpt lat="27.736479" lon="-15.594436">
    <time>1971-01-13T12:11:34Z</time>
  <cmt>extensions = 1.03</cmt>
    </trkpt>
    <trkpt lat="27.736456" lon="-15.594167">
    <time>1971-01-13T12:11:58Z</time>
  <cmt>extensions = 1.16</cmt>
    </trkpt>
    <trkpt lat="27.73647" lon="-15.594105">
    <time>1971-01-13T12:12:04Z</time>
  <cmt>extensions = 0.45</cmt>
    </trkpt>
    <trkpt lat="27.73646" lon="-15.59382">
    <time>1971-01-13T12:12:29Z</time>
  <cmt>extensions = 1.17</cmt>
    </trkpt>
    <trkpt lat="27.736469" lon="-15.593723">
    <time>1971-01-13T12:12:38Z</time>
  <cmt>extensions = 1.29</cmt>
    </trkpt>
    <trkpt lat="27.736464" lon="-15.593614">
    <time>1971-01-13T12:12:48Z</time>
  <cmt>extensions = 1.54</cmt>
    </trkpt>
    <trkpt lat="27.736492" lon="-15.593446">
    <time>1971-01-13T12:13:03Z</time>
  <cmt>extensions = 1.30</cmt>
    </trkpt>
    <trkpt lat="27.736556" lon="-15.593226">
    <time>1971-01-13T12:13:23Z</time>
  <cmt>extensions = 1.34</cmt>
    </trkpt>
    <trkpt lat="27.736586" lon="-15.593162">
    <time>1971-01-13T12:13:30Z</time>
  <cmt>extensions = 1.43</cmt>
    </trkpt>
    <trkpt lat="27.736588" lon="-15.59311">
    <time>1971-01-13T12:13:34Z</time>
  <cmt>extensions = 1.03</cmt>
    </trkpt>
    <trkpt lat="27.736575" lon="-15.59306">
    <time>1971-01-13T12:13:39Z</time>
  <cmt>extensions = 0.73</cmt>
    </trkpt>
    <trkpt lat="27.73669" lon="-15.593012">
    <time>1971-01-13T12:13:51Z</time>
  <cmt>extensions = 0.47</cmt>
    </trkpt>
    <trkpt lat="27.736733" lon="-15.592729">
    <time>1971-01-13T12:14:17Z</time>
  <cmt>extensions = 1.26</cmt>
    </trkpt>
    <trkpt lat="27.736813" lon="-15.592493">
    <time>1971-01-13T12:14:39Z</time>
  <cmt>extensions = 1.04</cmt>
    </trkpt>
    <trkpt lat="27.736848" lon="-15.592555">
    <time>1971-01-13T12:14:46Z</time>
  <cmt>extensions = 0.51</cmt>
    </trkpt>
    <trkpt lat="27.736848" lon="-15.592612">
    <time>1971-01-13T12:14:51Z</time>
  <cmt>extensions = 0.25</cmt>
    </trkpt>
    <trkpt lat="27.736857" lon="-15.592689">
    <time>1971-01-13T12:14:57Z</time>
  <cmt>extensions = 0.31</cmt>
    </trkpt>
    <trkpt lat="27.736853" lon="-15.59259">
    <time>1971-01-13T12:15:06Z</time>
  <cmt>extensions = 1.06</cmt>
    </trkpt>
    <trkpt lat="27.736776" lon="-15.592485">
    <time>1971-01-13T12:15:18Z</time>
  <cmt>extensions = 0.71</cmt>
    </trkpt>
    <trkpt lat="27.73674" lon="-15.592547">
    <time>1971-01-13T12:15:25Z</time>
  <cmt>extensions = 0.52</cmt>
    </trkpt>
    <trkpt lat="27.736678" lon="-15.592581">
    <time>1971-01-13T12:15:32Z</time>
  <cmt>extensions = 0.16</cmt>
    </trkpt>
    <trkpt lat="27.736693" lon="-15.59263">
    <time>1971-01-13T12:15:36Z</time>
  <cmt>extensions = 0.14</cmt>
    </trkpt>
    <trkpt lat="27.736764" lon="-15.592748">
    <time>1971-01-13T12:15:49Z</time>
  <cmt>extensions = 0.28</cmt>
    </trkpt>
    <trkpt lat="27.736748" lon="-15.592424">
    <time>1971-01-13T12:16:18Z</time>
  <cmt>extensions = 1.34</cmt>
    </trkpt>
    <trkpt lat="27.736759" lon="-15.592241">
    <time>1971-01-13T12:16:34Z</time>
  <cmt>extensions = 0.90</cmt>
    </trkpt>
    <trkpt lat="27.736793" lon="-15.592111">
    <time>1971-01-13T12:16:46Z</time>
  <cmt>extensions = 0.89</cmt>
    </trkpt>
    <trkpt lat="27.736873" lon="-15.59212">
    <time>1971-01-13T12:16:54Z</time>
  <cmt>extensions = 0.53</cmt>
    </trkpt>
    <trkpt lat="27.736871" lon="-15.592002">
    <time>1971-01-13T12:17:04Z</time>
  <cmt>extensions = 0.19</cmt>
    </trkpt>
    <trkpt lat="27.73687" lon="-15.591663">
    <time>1971-01-13T12:17:34Z</time>
  <cmt>extensions = 1.45</cmt>
    </trkpt>
    <trkpt lat="27.73681" lon="-15.590954">
    <time>1971-01-13T12:18:38Z</time>
  <cmt>extensions = 1.48</cmt>
    </trkpt>
    <trkpt lat="27.736747" lon="-15.590691">
    <time>1971-01-13T12:19:02Z</time>
  <cmt>extensions = 1.28</cmt>
    </trkpt>
    <trkpt lat="27.736728" lon="-15.590462">
    <time>1971-01-13T12:19:22Z</time>
  <cmt>extensions = 1.19</cmt>
    </trkpt>
    <trkpt lat="27.736661" lon="-15.590205">
    <time>1971-01-13T12:19:46Z</time>
  <cmt>extensions = 1.20</cmt>
    </trkpt>
    <trkpt lat="27.736539" lon="-15.588782">
    <time>1971-01-13T12:21:53Z</time>
  <cmt>extensions = 1.12</cmt>
    </trkpt>
    <trkpt lat="27.736554" lon="-15.588468">
    <time>1971-01-13T12:22:21Z</time>
  <cmt>extensions = 1.29</cmt>
    </trkpt>
    <trkpt lat="27.736614" lon="-15.588189">
    <time>1971-01-13T12:22:46Z</time>
  <cmt>extensions = 1.23</cmt>
    </trkpt>
    <trkpt lat="27.736685" lon="-15.587527">
    <time>1971-01-13T12:23:45Z</time>
  <cmt>extensions = 1.22</cmt>
    </trkpt>
    <trkpt lat="27.736685" lon="-15.587176">
    <time>1971-01-13T12:24:17Z</time>
  <cmt>extensions = 1.24</cmt>
    </trkpt>
    <trkpt lat="27.736648" lon="-15.586869">
    <time>1971-01-13T12:24:44Z</time>
  <cmt>extensions = 1.27</cmt>
    </trkpt>
    <trkpt lat="27.736646" lon="-15.586765">
    <time>1971-01-13T12:24:53Z</time>
  <cmt>extensions = 1.28</cmt>
    </trkpt>
    <trkpt lat="27.736606" lon="-15.586724">
    <time>1971-01-13T12:24:59Z</time>
  <cmt>extensions = 1.20</cmt>
    </trkpt>
    <trkpt lat="27.736566" lon="-15.58656">
    <time>1971-01-13T12:25:14Z</time>
  <cmt>extensions = 0.88</cmt>
    </trkpt>
    <trkpt lat="27.736547" lon="-15.586502">
    <time>1971-01-13T12:25:19Z</time>
  <cmt>extensions = 0.38</cmt>
    </trkpt>
    <trkpt lat="27.736498" lon="-15.586309">
    <time>1971-01-13T12:25:37Z</time>
  <cmt>extensions = 0.99</cmt>
    </trkpt>
    <trkpt lat="27.736364" lon="-15.586125">
    <time>1971-01-13T12:25:58Z</time>
  <cmt>extensions = 1.24</cmt>
    </trkpt>
    <trkpt lat="27.735921" lon="-15.583832">
    <time>1971-01-13T12:29:26Z</time>
  <cmt>extensions = 1.38</cmt>
    </trkpt>
    <trkpt lat="27.735841" lon="-15.582813">
    <time>1971-01-13T12:30:57Z</time>
  <cmt>extensions = 1.39</cmt>
    </trkpt>
    <trkpt lat="27.73584" lon="-15.582659">
    <time>1971-01-13T12:31:11Z</time>
  <cmt>extensions = 1.08</cmt>
    </trkpt>
    <trkpt lat="27.735909" lon="-15.582572">
    <time>1971-01-13T12:31:21Z</time>
  <cmt>extensions = 0.62</cmt>
    </trkpt>
    <trkpt lat="27.735943" lon="-15.582143">
    <time>1971-01-13T12:31:59Z</time>
  <cmt>extensions = 1.05</cmt>
    </trkpt>
    <trkpt lat="27.735905" lon="-15.581385">
    <time>1971-01-13T12:33:07Z</time>
  <cmt>extensions = 1.29</cmt>
    </trkpt>
    <trkpt lat="27.735933" lon="-15.581213">
    <time>1971-01-13T12:33:22Z</time>
  <cmt>extensions = 1.23</cmt>
    </trkpt>
    <trkpt lat="27.735927" lon="-15.581079">
    <time>1971-01-13T12:33:34Z</time>
  <cmt>extensions = 1.32</cmt>
    </trkpt>
    <trkpt lat="27.735933" lon="-15.58101">
    <time>1971-01-13T12:33:40Z</time>
  <cmt>extensions = 1.14</cmt>
    </trkpt>
    <trkpt lat="27.735928" lon="-15.580788">
    <time>1971-01-13T12:34:00Z</time>
  <cmt>extensions = 1.09</cmt>
    </trkpt>
    <trkpt lat="27.735923" lon="-15.580717">
    <time>1971-01-13T12:34:06Z</time>
  <cmt>extensions = 0.79</cmt>
    </trkpt>
    <trkpt lat="27.735939" lon="-15.580664">
    <time>1971-01-13T12:34:11Z</time>
  <cmt>extensions = 0.24</cmt>
    </trkpt>
    <trkpt lat="27.73596" lon="-15.580568">
    <time>1971-01-13T12:34:20Z</time>
  <cmt>extensions = 0.51</cmt>
    </trkpt>
    <trkpt lat="27.735925" lon="-15.5803">
    <time>1971-01-13T12:34:44Z</time>
  <cmt>extensions = 1.17</cmt>
    </trkpt>
    <trkpt lat="27.735927" lon="-15.580216">
    <time>1971-01-13T12:34:51Z</time>
  <cmt>extensions = 1.31</cmt>
    </trkpt>
    <trkpt lat="27.735954" lon="-15.579828">
    <time>1971-01-13T12:35:26Z</time>
  <cmt>extensions = 1.32</cmt>
    </trkpt>
    <trkpt lat="27.736179" lon="-15.578426">
    <time>1971-01-13T12:37:32Z</time>
  <cmt>extensions = 1.18</cmt>
    </trkpt>
    <trkpt lat="27.736249" lon="-15.578106">
    <time>1971-01-13T12:38:01Z</time>
  <cmt>extensions = 1.35</cmt>
    </trkpt>
    <trkpt lat="27.736288" lon="-15.577831">
    <time>1971-01-13T12:38:26Z</time>
  <cmt>extensions = 1.19</cmt>
    </trkpt>
    <trkpt lat="27.736388" lon="-15.577478">
    <time>1971-01-13T12:38:59Z</time>
  <cmt>extensions = 1.30</cmt>
    </trkpt>
    <trkpt lat="27.736451" lon="-15.57717">
    <time>1971-01-13T12:39:27Z</time>
  <cmt>extensions = 1.35</cmt>
    </trkpt>
    <trkpt lat="27.736496" lon="-15.576841">
    <time>1971-01-13T12:39:57Z</time>
  <cmt>extensions = 1.37</cmt>
    </trkpt>
    <trkpt lat="27.736561" lon="-15.576556">
    <time>1971-01-13T12:40:23Z</time>
  <cmt>extensions = 1.32</cmt>
    </trkpt>
    <trkpt lat="27.736601" lon="-15.57629">
    <time>1971-01-13T12:40:47Z</time>
  <cmt>extensions = 1.27</cmt>
    </trkpt>
    <trkpt lat="27.736847" lon="-15.575228">
    <time>1971-01-13T12:42:24Z</time>
  <cmt>extensions = 1.37</cmt>
    </trkpt>
    <trkpt lat="27.737049" lon="-15.574185">
    <time>1971-01-13T12:43:59Z</time>
  <cmt>extensions = 1.38</cmt>
    </trkpt>
    <trkpt lat="27.737164" lon="-15.57391">
    <time>1971-01-13T12:44:26Z</time>
  <cmt>extensions = 1.25</cmt>
    </trkpt>
    <trkpt lat="27.737194" lon="-15.573817">
    <time>1971-01-13T12:44:34Z</time>
  <cmt>extensions = 1.08</cmt>
    </trkpt>
    <trkpt lat="27.737235" lon="-15.57377">
    <time>1971-01-13T12:44:40Z</time>
  <cmt>extensions = 0.65</cmt>
    </trkpt>
    <trkpt lat="27.737257" lon="-15.573232">
    <time>1971-01-13T12:45:28Z</time>
  <cmt>extensions = 5.42</cmt>
    </trkpt>
    <trkpt lat="27.737349" lon="-15.572927">
    <time>1971-01-13T12:45:57Z</time>
  <cmt>extensions = 0.33</cmt>
    </trkpt>
    <trkpt lat="27.737327" lon="-15.5728">
    <time>1971-01-13T12:46:08Z</time>
  <cmt>extensions = 0.23</cmt>
    </trkpt>
    <trkpt lat="27.737373" lon="-15.572622">
    <time>1971-01-13T12:46:25Z</time>
  <cmt>extensions = 0.23</cmt>
    </trkpt>
    <trkpt lat="27.73742" lon="-15.572368">
    <time>1971-01-13T12:46:48Z</time>
  <cmt>extensions = 0.58</cmt>
    </trkpt>
    <trkpt lat="27.737512" lon="-15.571987">
    <time>1971-01-13T12:47:23Z</time>
  <cmt>extensions = 5.16</cmt>
    </trkpt>
    <trkpt lat="27.737649" lon="-15.571708">
    <time>1971-01-13T12:47:51Z</time>
  <cmt>extensions = 1.50</cmt>
    </trkpt>
    <trkpt lat="27.737811" lon="-15.570971">
    <time>1971-01-13T12:48:58Z</time>
  <cmt>extensions = 5.56</cmt>
    </trkpt>
    <trkpt lat="27.738196" lon="-15.570846">
    <time>1971-01-13T12:49:38Z</time>
  <cmt>extensions = 2.12</cmt>
    </trkpt>
    <trkpt lat="27.73858" lon="-15.571001">
    <time>1971-01-13T12:50:19Z</time>
  <cmt>extensions = 2.52</cmt>
    </trkpt>
    <trkpt lat="27.738896" lon="-15.571232">
    <time>1971-01-13T12:50:56Z</time>
  <cmt>extensions = 1.75</cmt>
    </trkpt>
    <trkpt lat="27.739099" lon="-15.571309">
    <time>1971-01-13T12:51:18Z</time>
  <cmt>extensions = 1.83</cmt>
    </trkpt>
    <trkpt lat="27.739763" lon="-15.571637">
    <time>1971-01-13T12:52:30Z</time>
  <cmt>extensions = 3.67</cmt>
    </trkpt>
    <trkpt lat="27.740014" lon="-15.571591">
    <time>1971-01-13T12:52:56Z</time>
  <cmt>extensions = 1.18</cmt>
    </trkpt>
    <trkpt lat="27.740302" lon="-15.571624">
    <time>1971-01-13T12:53:24Z</time>
  <cmt>extensions = 1.34</cmt>
    </trkpt>
    <trkpt lat="27.740455" lon="-15.571723">
    <time>1971-01-13T12:53:42Z</time>
  <cmt>extensions = 0.93</cmt>
    </trkpt>
    <trkpt lat="27.740713" lon="-15.571666">
    <time>1971-01-13T12:54:08Z</time>
  <cmt>extensions = 1.26</cmt>
    </trkpt>
    <trkpt lat="27.741345" lon="-15.571771">
    <time>1971-01-13T12:55:12Z</time>
  <cmt>extensions = 1.36</cmt>
    </trkpt>
    <trkpt lat="27.741431" lon="-15.571791">
    <time>1971-01-13T12:55:21Z</time>
  <cmt>extensions = 0.54</cmt>
    </trkpt>
    <trkpt lat="27.741559" lon="-15.571851">
    <time>1971-01-13T12:55:35Z</time>
  <cmt>extensions = 0.62</cmt>
    </trkpt>
    <trkpt lat="27.741629" lon="-15.571914">
    <time>1971-01-13T12:55:43Z</time>
  <cmt>extensions = 1.23</cmt>
    </trkpt>
    <trkpt lat="27.742067" lon="-15.572087">
    <time>1971-01-13T12:56:30Z</time>
  <cmt>extensions = 1.23</cmt>
    </trkpt>
    <trkpt lat="27.742084" lon="-15.572097">
    <time>1971-01-13T12:56:32Z</time>
  <cmt>extensions = 1.07</cmt>
    </trkpt>
    <trkpt lat="27.742124" lon="-15.572117">
    <time>1971-01-13T12:56:36Z</time>
  <cmt>extensions = 1.22</cmt>
    </trkpt>
    <trkpt lat="27.742409" lon="-15.572285">
    <time>1971-01-13T12:57:08Z</time>
  <cmt>extensions = 1.49</cmt>
    </trkpt>
    <trkpt lat="27.742672" lon="-15.572366">
    <time>1971-01-13T12:57:35Z</time>
  <cmt>extensions = 1.38</cmt>
    </trkpt>
    <trkpt lat="27.74292" lon="-15.572359">
    <time>1971-01-13T12:58:00Z</time>
  <cmt>extensions = 1.15</cmt>
    </trkpt>
    <trkpt lat="27.743182" lon="-15.572288">
    <time>1971-01-13T12:58:27Z</time>
  <cmt>extensions = 1.25</cmt>
    </trkpt>
    <trkpt lat="27.743279" lon="-15.572279">
    <time>1971-01-13T12:58:37Z</time>
  <cmt>extensions = 1.08</cmt>
    </trkpt>
    <trkpt lat="27.743299" lon="-15.572273">
    <time>1971-01-13T12:58:39Z</time>
  <cmt>extensions = 1.15</cmt>
    </trkpt>
    <trkpt lat="27.74344" lon="-15.572265">
    <time>1971-01-13T12:58:53Z</time>
  <cmt>extensions = 0.92</cmt>
    </trkpt>
    <trkpt lat="27.743482" lon="-15.572292">
    <time>1971-01-13T12:58:58Z</time>
  <cmt>extensions = 0.30</cmt>
    </trkpt>
    <trkpt lat="27.743523" lon="-15.572272">
    <time>1971-01-13T12:59:02Z</time>
  <cmt>extensions = 1.24</cmt>
    </trkpt>
    <trkpt lat="27.743647" lon="-15.572232">
    <time>1971-01-13T12:59:15Z</time>
  <cmt>extensions = 0.68</cmt>
    </trkpt>
    <trkpt lat="27.743661" lon="-15.572225">
    <time>1971-01-13T12:59:16Z</time>
  <cmt>extensions = 0.05</cmt>
    </trkpt>
    <trkpt lat="27.743668" lon="-15.572227">
    <time>1971-01-13T12:59:17Z</time>
  <cmt>extensions = 0.05</cmt>
    </trkpt>
    <trkpt lat="27.743764" lon="-15.572262">
    <time>1971-01-13T12:59:27Z</time>
  <cmt>extensions = 0.75</cmt>
    </trkpt>
    <trkpt lat="27.743884" lon="-15.572329">
    <time>1971-01-13T12:59:41Z</time>
  <cmt>extensions = 0.68</cmt>
    </trkpt>
    <trkpt lat="27.743899" lon="-15.572345">
    <time>1971-01-13T12:59:43Z</time>
  <cmt>extensions = 0.76</cmt>
    </trkpt>
    <trkpt lat="27.743959" lon="-15.572525">
    <time>1971-01-13T13:00:00Z</time>
  <cmt>extensions = 1.18</cmt>
    </trkpt>
    <trkpt lat="27.743999" lon="-15.572545">
    <time>1971-01-13T13:00:04Z</time>
  <cmt>extensions = 1.22</cmt>
    </trkpt>
    <trkpt lat="27.744218" lon="-15.572635">
    <time>1971-01-13T13:00:27Z</time>
  <cmt>extensions = 1.24</cmt>
    </trkpt>
    <trkpt lat="27.744412" lon="-15.572739">
    <time>1971-01-13T13:00:49Z</time>
  <cmt>extensions = 1.26</cmt>
    </trkpt>
    <trkpt lat="27.744561" lon="-15.572804">
    <time>1971-01-13T13:01:05Z</time>
  <cmt>extensions = 1.05</cmt>
    </trkpt>
    <trkpt lat="27.744755" lon="-15.572804">
    <time>1971-01-13T13:01:24Z</time>
  <cmt>extensions = 0.86</cmt>
    </trkpt>
    <trkpt lat="27.744755" lon="-15.572817">
    <time>1971-01-13T13:01:25Z</time>
  <cmt>extensions = 0.06</cmt>
    </trkpt>
    <trkpt lat="27.744774" lon="-15.572822">
    <time>1971-01-13T13:01:27Z</time>
  <cmt>extensions = 0.31</cmt>
    </trkpt>
    <trkpt lat="27.744867" lon="-15.572884">
    <time>1971-01-13T13:01:38Z</time>
  <cmt>extensions = 0.71</cmt>
    </trkpt>
    <trkpt lat="27.745007" lon="-15.572978">
    <time>1971-01-13T13:01:54Z</time>
  <cmt>extensions = 0.79</cmt>
    </trkpt>
    <trkpt lat="27.745022" lon="-15.572984">
    <time>1971-01-13T13:01:56Z</time>
  <cmt>extensions = 0.10</cmt>
    </trkpt>
    <trkpt lat="27.745023" lon="-15.572985">
    <time>1971-01-13T13:01:56Z</time>
  <cmt>extensions = 0.01</cmt>
    </trkpt>
    <trkpt lat="27.744935" lon="-15.572965">
    <time>1971-01-13T13:02:05Z</time>
  <cmt>extensions = 0.59</cmt>
    </trkpt>
    <trkpt lat="27.74493" lon="-15.572962">
    <time>1971-01-13T13:02:05Z</time>
  <cmt>extensions = 0.03</cmt>
    </trkpt>
    <trkpt lat="27.744938" lon="-15.572943">
    <time>1971-01-13T13:02:07Z</time>
  <cmt>extensions = 1.04</cmt>
    </trkpt>
    <trkpt lat="27.744963" lon="-15.572953">
    <time>1971-01-13T13:02:10Z</time>
  <cmt>extensions = 0.23</cmt>
    </trkpt>
    <trkpt lat="27.745132" lon="-15.572991">
    <time>1971-01-13T13:02:27Z</time>
  <cmt>extensions = 1.28</cmt>
    </trkpt>
    <trkpt lat="27.745193" lon="-15.573006">
    <time>1971-01-13T13:02:33Z</time>
  <cmt>extensions = 0.30</cmt>
    </trkpt>
    <trkpt lat="27.74536" lon="-15.573032">
    <time>1971-01-13T13:02:50Z</time>
  <cmt>extensions = 1.17</cmt>
    </trkpt>
    <trkpt lat="27.745414" lon="-15.57304">
    <time>1971-01-13T13:02:56Z</time>
  <cmt>extensions = 0.36</cmt>
    </trkpt>
    <trkpt lat="27.745622" lon="-15.573088">
    <time>1971-01-13T13:03:17Z</time>
  <cmt>extensions = 1.39</cmt>
    </trkpt>
    <trkpt lat="27.745679" lon="-15.573101">
    <time>1971-01-13T13:03:22Z</time>
  <cmt>extensions = 1.62</cmt>
    </trkpt>
    <trkpt lat="27.745719" lon="-15.57315">
    <time>1971-01-13T13:03:28Z</time>
  <cmt>extensions = 1.31</cmt>
    </trkpt>
    <trkpt lat="27.74586" lon="-15.573407">
    <time>1971-01-13T13:03:55Z</time>
  <cmt>extensions = 1.24</cmt>
    </trkpt>
    <trkpt lat="27.745873" lon="-15.573463">
    <time>1971-01-13T13:04:00Z</time>
  <cmt>extensions = 2.85</cmt>
    </trkpt>
    <trkpt lat="27.745893" lon="-15.573595">
    <time>1971-01-13T13:04:12Z</time>
  <cmt>extensions = 1.20</cmt>
    </trkpt>
    <trkpt lat="27.745883" lon="-15.573673">
    <time>1971-01-13T13:04:19Z</time>
  <cmt>extensions = 0.39</cmt>
    </trkpt>
    <trkpt lat="27.74596" lon="-15.573784">
    <time>1971-01-13T13:04:32Z</time>
  <cmt>extensions = 1.26</cmt>
    </trkpt>
    <trkpt lat="27.745967" lon="-15.573793">
    <time>1971-01-13T13:04:33Z</time>
  <cmt>extensions = 1.18</cmt>
    </trkpt>
    <trkpt lat="27.746" lon="-15.573838">
    <time>1971-01-13T13:04:38Z</time>
  <cmt>extensions = 1.15</cmt>
    </trkpt>
    <trkpt lat="27.746034" lon="-15.573896">
    <time>1971-01-13T13:04:44Z</time>
  <cmt>extensions = 1.14</cmt>
    </trkpt>
    <trkpt lat="27.746063" lon="-15.574043">
    <time>1971-01-13T13:04:57Z</time>
  <cmt>extensions = 1.14</cmt>
    </trkpt>
    <trkpt lat="27.746069" lon="-15.574072">
    <time>1971-01-13T13:05:00Z</time>
  <cmt>extensions = 0.59</cmt>
    </trkpt>
    <trkpt lat="27.746078" lon="-15.574081">
    <time>1971-01-13T13:05:01Z</time>
  <cmt>extensions = 0.45</cmt>
    </trkpt>
    <trkpt lat="27.74613" lon="-15.574172">
    <time>1971-01-13T13:05:11Z</time>
  <cmt>extensions = 1.19</cmt>
    </trkpt>
    <trkpt lat="27.746168" lon="-15.574277">
    <time>1971-01-13T13:05:21Z</time>
  <cmt>extensions = 1.24</cmt>
    </trkpt>
    <trkpt lat="27.746168" lon="-15.574318">
    <time>1971-01-13T13:05:24Z</time>
  <cmt>extensions = 1.35</cmt>
    </trkpt>
    <trkpt lat="27.746222" lon="-15.574411">
    <time>1971-01-13T13:05:34Z</time>
  <cmt>extensions = 1.22</cmt>
    </trkpt>
    <trkpt lat="27.746361" lon="-15.574431">
    <time>1971-01-13T13:05:48Z</time>
  <cmt>extensions = 1.20</cmt>
    </trkpt>
    <trkpt lat="27.746368" lon="-15.574432">
    <time>1971-01-13T13:05:49Z</time>
  <cmt>extensions = 0.78</cmt>
    </trkpt>
    <trkpt lat="27.746472" lon="-15.574378">
    <time>1971-01-13T13:06:00Z</time>
  <cmt>extensions = 0.71</cmt>
    </trkpt>
    <trkpt lat="27.746484" lon="-15.57438">
    <time>1971-01-13T13:06:02Z</time>
  <cmt>extensions = 0.68</cmt>
    </trkpt>
    <trkpt lat="27.746559" lon="-15.574408">
    <time>1971-01-13T13:06:09Z</time>
  <cmt>extensions = 0.42</cmt>
    </trkpt>
    <trkpt lat="27.746625" lon="-15.574522">
    <time>1971-01-13T13:06:21Z</time>
  <cmt>extensions = 0.48</cmt>
    </trkpt>
    <trkpt lat="27.746615" lon="-15.574653">
    <time>1971-01-13T13:06:33Z</time>
  <cmt>extensions = 0.62</cmt>
    </trkpt>
    <trkpt lat="27.746632" lon="-15.574716">
    <time>1971-01-13T13:06:39Z</time>
  <cmt>extensions = 0.04</cmt>
    </trkpt>
    <trkpt lat="27.746642" lon="-15.574739">
    <time>1971-01-13T13:06:41Z</time>
  <cmt>extensions = 0.09</cmt>
    </trkpt>
    <trkpt lat="27.746685" lon="-15.574719">
    <time>1971-01-13T13:06:46Z</time>
  <cmt>extensions = 0.32</cmt>
    </trkpt>
    <trkpt lat="27.746702" lon="-15.574699">
    <time>1971-01-13T13:06:48Z</time>
  <cmt>extensions = 0.04</cmt>
    </trkpt>
    <trkpt lat="27.746707" lon="-15.5747">
    <time>1971-01-13T13:06:49Z</time>
  <cmt>extensions = 0.00</cmt>
    </trkpt>
    <trkpt lat="27.746714" lon="-15.574719">
    <time>1971-01-13T13:06:51Z</time>
  <cmt>extensions = 1.01</cmt>
    </trkpt>
    <trkpt lat="27.746699" lon="-15.574769">
    <time>1971-01-13T13:06:55Z</time>
  <cmt>extensions = 1.30</cmt>
    </trkpt>
    <trkpt lat="27.746503" lon="-15.57499">
    <time>1971-01-13T13:07:23Z</time>
  <cmt>extensions = 1.47</cmt>
    </trkpt>
    <trkpt lat="27.746424" lon="-15.575073">
    <time>1971-01-13T13:07:34Z</time>
  <cmt>extensions = 1.20</cmt>
    </trkpt>
    <trkpt lat="27.746404" lon="-15.575232">
    <time>1971-01-13T13:07:48Z</time>
  <cmt>extensions = 0.99</cmt>
    </trkpt>
    <trkpt lat="27.746401" lon="-15.575222">
    <time>1971-01-13T13:07:49Z</time>
  <cmt>extensions = 1.04</cmt>
    </trkpt>
    <trkpt lat="27.746377" lon="-15.575168">
    <time>1971-01-13T13:07:54Z</time>
  <cmt>extensions = 1.49</cmt>
    </trkpt>
    <trkpt lat="27.746364" lon="-15.575128">
    <time>1971-01-13T13:07:58Z</time>
  <cmt>extensions = 1.40</cmt>
    </trkpt>
    <trkpt lat="27.746348" lon="-15.575085">
    <time>1971-01-13T13:08:02Z</time>
  <cmt>extensions = 1.53</cmt>
    </trkpt>
    <trkpt lat="27.746316" lon="-15.575039">
    <time>1971-01-13T13:08:07Z</time>
  <cmt>extensions = 1.44</cmt>
    </trkpt>
    <trkpt lat="27.746291" lon="-15.575018">
    <time>1971-01-13T13:08:10Z</time>
  <cmt>extensions = 1.73</cmt>
    </trkpt>
    <trkpt lat="27.746232" lon="-15.575027">
    <time>1971-01-13T13:08:16Z</time>
  <cmt>extensions = 1.66</cmt>
    </trkpt>
    <trkpt lat="27.746188" lon="-15.575053">
    <time>1971-01-13T13:08:21Z</time>
  <cmt>extensions = 1.84</cmt>
    </trkpt>
    <trkpt lat="27.74611" lon="-15.575121">
    <time>1971-01-13T13:08:31Z</time>
  <cmt>extensions = 1.57</cmt>
    </trkpt>
    <trkpt lat="27.746049" lon="-15.575173">
    <time>1971-01-13T13:08:39Z</time>
  <cmt>extensions = 1.70</cmt>
    </trkpt>
    <trkpt lat="27.745997" lon="-15.575213">
    <time>1971-01-13T13:08:45Z</time>
  <cmt>extensions = 1.40</cmt>
    </trkpt>
    <trkpt lat="27.745857" lon="-15.57533">
    <time>1971-01-13T13:09:02Z</time>
  <cmt>extensions = 1.76</cmt>
    </trkpt>
    <trkpt lat="27.745787" lon="-15.575372">
    <time>1971-01-13T13:09:10Z</time>
  <cmt>extensions = 1.47</cmt>
    </trkpt>
    <trkpt lat="27.745753" lon="-15.575395">
    <time>1971-01-13T13:09:14Z</time>
  <cmt>extensions = 1.47</cmt>
    </trkpt>
    <trkpt lat="27.745728" lon="-15.575419">
    <time>1971-01-13T13:09:18Z</time>
  <cmt>extensions = 1.83</cmt>
    </trkpt>
    <trkpt lat="27.745671" lon="-15.575455">
    <time>1971-01-13T13:09:24Z</time>
  <cmt>extensions = 1.45</cmt>
    </trkpt>
    <trkpt lat="27.745622" lon="-15.57551">
    <time>1971-01-13T13:09:31Z</time>
  <cmt>extensions = 2.56</cmt>
    </trkpt>
    <trkpt lat="27.745594" lon="-15.575538">
    <time>1971-01-13T13:09:35Z</time>
  <cmt>extensions = 1.39</cmt>
    </trkpt>
    <trkpt lat="27.745552" lon="-15.575549">
    <time>1971-01-13T13:09:39Z</time>
  <cmt>extensions = 1.20</cmt>
    </trkpt>
    <trkpt lat="27.745517" lon="-15.57559">
    <time>1971-01-13T13:09:44Z</time>
  <cmt>extensions = 1.87</cmt>
    </trkpt>
    <trkpt lat="27.745376" lon="-15.575761">
    <time>1971-01-13T13:10:05Z</time>
  <cmt>extensions = 1.77</cmt>
    </trkpt>
    <trkpt lat="27.745349" lon="-15.575782">
    <time>1971-01-13T13:10:08Z</time>
  <cmt>extensions = 1.22</cmt>
    </trkpt>
    <trkpt lat="27.745327" lon="-15.575835">
    <time>1971-01-13T13:10:13Z</time>
  <cmt>extensions = 0.96</cmt>
    </trkpt>
    <trkpt lat="27.745339" lon="-15.575824">
    <time>1971-01-13T13:10:15Z</time>
  <cmt>extensions = 0.17</cmt>
    </trkpt>
    <trkpt lat="27.745248" lon="-15.576051">
    <time>1971-01-13T13:10:37Z</time>
  <cmt>extensions = 1.53</cmt>
    </trkpt>
    <trkpt lat="27.745236" lon="-15.576226">
    <time>1971-01-13T13:10:52Z</time>
  <cmt>extensions = 1.02</cmt>
    </trkpt>
    <trkpt lat="27.745237" lon="-15.576227">
    <time>1971-01-13T13:10:52Z</time>
  <cmt>extensions = 0.02</cmt>
    </trkpt>
    <trkpt lat="27.745268" lon="-15.576404">
    <time>1971-01-13T13:11:08Z</time>
  <cmt>extensions = 1.27</cmt>
    </trkpt>
    <trkpt lat="27.745262" lon="-15.576441">
    <time>1971-01-13T13:11:12Z</time>
  <cmt>extensions = 1.85</cmt>
    </trkpt>
    <trkpt lat="27.745257" lon="-15.576504">
    <time>1971-01-13T13:11:17Z</time>
  <cmt>extensions = 1.56</cmt>
    </trkpt>
    <trkpt lat="27.745276" lon="-15.576577">
    <time>1971-01-13T13:11:24Z</time>
  <cmt>extensions = 0.62</cmt>
    </trkpt>
    <trkpt lat="27.745277" lon="-15.576577">
    <time>1971-01-13T13:11:24Z</time>
  <cmt>extensions = 0.00</cmt>
    </trkpt>
    <trkpt lat="27.745335" lon="-15.576662">
    <time>1971-01-13T13:11:34Z</time>
  <cmt>extensions = 0.59</cmt>
    </trkpt>
    <trkpt lat="27.745365" lon="-15.576623">
    <time>1971-01-13T13:11:38Z</time>
  <cmt>extensions = 0.73</cmt>
    </trkpt>
    <trkpt lat="27.745378" lon="-15.57661">
    <time>1971-01-13T13:11:40Z</time>
  <cmt>extensions = 0.97</cmt>
    </trkpt>
    <trkpt lat="27.745384" lon="-15.576556">
    <time>1971-01-13T13:11:45Z</time>
  <cmt>extensions = 1.07</cmt>
    </trkpt>
    <trkpt lat="27.745399" lon="-15.576512">
    <time>1971-01-13T13:11:49Z</time>
  <cmt>extensions = 1.16</cmt>
    </trkpt>
    <trkpt lat="27.74539" lon="-15.576444">
    <time>1971-01-13T13:11:55Z</time>
  <cmt>extensions = 0.52</cmt>
    </trkpt>
    <trkpt lat="27.745395" lon="-15.576443">
    <time>1971-01-13T13:11:56Z</time>
  <cmt>extensions = 0.28</cmt>
    </trkpt>
    <trkpt lat="27.745409" lon="-15.576466">
    <time>1971-01-13T13:11:58Z</time>
  <cmt>extensions = 1.37</cmt>
    </trkpt>
    <trkpt lat="27.745417" lon="-15.576457">
    <time>1971-01-13T13:11:59Z</time>
  <cmt>extensions = 0.11</cmt>
    </trkpt>
    <trkpt lat="27.745414" lon="-15.576447">
    <time>1971-01-13T13:12:00Z</time>
  <cmt>extensions = 0.02</cmt>
    </trkpt>
    <trkpt lat="27.745403" lon="-15.576373">
    <time>1971-01-13T13:12:07Z</time>
  <cmt>extensions = 0.57</cmt>
    </trkpt>
    <trkpt lat="27.745404" lon="-15.576374">
    <time>1971-01-13T13:12:07Z</time>
  <cmt>extensions = 0.01</cmt>
    </trkpt>
    <trkpt lat="27.745402" lon="-15.57639">
    <time>1971-01-13T13:12:08Z</time>
  <cmt>extensions = 0.14</cmt>
    </trkpt>
    <trkpt lat="27.745391" lon="-15.576439">
    <time>1971-01-13T13:12:13Z</time>
  <cmt>extensions = 0.36</cmt>
    </trkpt>
    <trkpt lat="27.745498" lon="-15.576478">
    <time>1971-01-13T13:12:24Z</time>
  <cmt>extensions = 1.25</cmt>
    </trkpt>
    <trkpt lat="27.745695" lon="-15.576551">
    <time>1971-01-13T13:12:45Z</time>
  <cmt>extensions = 1.10</cmt>
    </trkpt>
    <trkpt lat="27.745738" lon="-15.576579">
    <time>1971-01-13T13:12:50Z</time>
  <cmt>extensions = 0.21</cmt>
    </trkpt>
    <trkpt lat="27.745766" lon="-15.576588">
    <time>1971-01-13T13:12:53Z</time>
  <cmt>extensions = 0.16</cmt>
    </trkpt>
    <trkpt lat="27.745735" lon="-15.576559">
    <time>1971-01-13T13:12:57Z</time>
  <cmt>extensions = 0.20</cmt>
    </trkpt>
    <trkpt lat="27.74551" lon="-15.576499">
    <time>1971-01-13T13:13:20Z</time>
  <cmt>extensions = 1.23</cmt>
    </trkpt>
    <trkpt lat="27.74551" lon="-15.576502">
    <time>1971-01-13T13:13:20Z</time>
  <cmt>extensions = 0.07</cmt>
    </trkpt>
    <trkpt lat="27.74566" lon="-15.576503">
    <time>1971-01-13T13:13:35Z</time>
  <cmt>extensions = 1.39</cmt>
    </trkpt>
    <trkpt lat="27.745819" lon="-15.576511">
    <time>1971-01-13T13:13:51Z</time>
  <cmt>extensions = 1.04</cmt>
    </trkpt>
    <trkpt lat="27.745819" lon="-15.576511">
    <time>1971-01-13T13:13:51Z</time>
    </trkpt>
    <trkpt lat="27.745819" lon="-15.576511">
    <time>1971-01-13T13:13:51Z</time>
    </trkpt>
    <trkpt lat="27.74551" lon="-15.57654">
    <time>1971-01-13T13:14:22Z</time>
  <cmt>extensions = 34.52</cmt>
    </trkpt>
    <trkpt lat="27.745487" lon="-15.576468">
    <time>1971-01-13T13:14:28Z</time>
  <cmt>extensions = 7.54</cmt>
    </trkpt>
    <trkpt lat="27.745448" lon="-15.576541">
    <time>1971-01-13T13:14:36Z</time>
  <cmt>extensions = 2.80</cmt>
    </trkpt>
    <trkpt lat="27.745401" lon="-15.576522">
    <time>1971-01-13T13:14:41Z</time>
  <cmt>extensions = 0.79</cmt>
    </trkpt>
    <trkpt lat="27.7453" lon="-15.57669">
    <time>1971-01-13T13:14:59Z</time>
  <cmt>extensions = 1.05</cmt>
    </trkpt>
    <trkpt lat="27.745285" lon="-15.576747">
    <time>1971-01-13T13:15:04Z</time>
  <cmt>extensions = 0.33</cmt>
    </trkpt>
    <trkpt lat="27.745281" lon="-15.576747">
    <time>1971-01-13T13:15:05Z</time>
  <cmt>extensions = 0.01</cmt>
    </trkpt>
    <trkpt lat="27.745233" lon="-15.576755">
    <time>1971-01-13T13:15:09Z</time>
  <cmt>extensions = 0.07</cmt>
    </trkpt>
    <trkpt lat="27.745206" lon="-15.576736">
    <time>1971-01-13T13:15:13Z</time>
  <cmt>extensions = 0.89</cmt>
    </trkpt>
    <trkpt lat="27.745173" lon="-15.576743">
    <time>1971-01-13T13:15:16Z</time>
  <cmt>extensions = 0.93</cmt>
    </trkpt>
    <trkpt lat="27.745158" lon="-15.576826">
    <time>1971-01-13T13:15:23Z</time>
  <cmt>extensions = 1.39</cmt>
    </trkpt>
    <trkpt lat="27.745138" lon="-15.577132">
    <time>1971-01-13T13:15:51Z</time>
  <cmt>extensions = 1.31</cmt>
    </trkpt>
    <trkpt lat="27.745133" lon="-15.577174">
    <time>1971-01-13T13:15:54Z</time>
  <cmt>extensions = 1.04</cmt>
    </trkpt>
    <trkpt lat="27.745136" lon="-15.577201">
    <time>1971-01-13T13:15:57Z</time>
  <cmt>extensions = 1.34</cmt>
    </trkpt>
    <trkpt lat="27.745222" lon="-15.57738">
    <time>1971-01-13T13:16:15Z</time>
  <cmt>extensions = 1.00</cmt>
    </trkpt>
    <trkpt lat="27.745219" lon="-15.577381">
    <time>1971-01-13T13:16:15Z</time>
  <cmt>extensions = 0.03</cmt>
    </trkpt>
    <trkpt lat="27.745216" lon="-15.57744">
    <time>1971-01-13T13:16:20Z</time>
  <cmt>extensions = 0.58</cmt>
    </trkpt>
    <trkpt lat="27.745238" lon="-15.577632">
    <time>1971-01-13T13:16:37Z</time>
  <cmt>extensions = 1.00</cmt>
    </trkpt>
    <trkpt lat="27.745286" lon="-15.577832">
    <time>1971-01-13T13:16:56Z</time>
  <cmt>extensions = 1.02</cmt>
    </trkpt>
    <trkpt lat="27.745439" lon="-15.578058">
    <time>1971-01-13T13:17:21Z</time>
  <cmt>extensions = 1.17</cmt>
    </trkpt>
    <trkpt lat="27.745534" lon="-15.578275">
    <time>1971-01-13T13:17:42Z</time>
  <cmt>extensions = 1.14</cmt>
    </trkpt>
    <trkpt lat="27.745591" lon="-15.578399">
    <time>1971-01-13T13:17:55Z</time>
  <cmt>extensions = 0.92</cmt>
    </trkpt>
    <trkpt lat="27.74569" lon="-15.578595">
    <time>1971-01-13T13:18:15Z</time>
  <cmt>extensions = 1.06</cmt>
    </trkpt>
    <trkpt lat="27.745752" lon="-15.578689">
    <time>1971-01-13T13:18:25Z</time>
  <cmt>extensions = 0.89</cmt>
    </trkpt>
    <trkpt lat="27.745902" lon="-15.578858">
    <time>1971-01-13T13:18:46Z</time>
  <cmt>extensions = 1.12</cmt>
    </trkpt>
    <trkpt lat="27.746122" lon="-15.579036">
    <time>1971-01-13T13:19:13Z</time>
  <cmt>extensions = 1.31</cmt>
    </trkpt>
    <trkpt lat="27.74627" lon="-15.579131">
    <time>1971-01-13T13:19:30Z</time>
  <cmt>extensions = 1.11</cmt>
    </trkpt>
    <trkpt lat="27.746401" lon="-15.579225">
    <time>1971-01-13T13:19:46Z</time>
  <cmt>extensions = 1.15</cmt>
    </trkpt>
    <trkpt lat="27.746522" lon="-15.579363">
    <time>1971-01-13T13:20:03Z</time>
  <cmt>extensions = 1.06</cmt>
    </trkpt>
    <trkpt lat="27.74669" lon="-15.579475">
    <time>1971-01-13T13:20:22Z</time>
  <cmt>extensions = 0.75</cmt>
    </trkpt>
    <trkpt lat="27.746863" lon="-15.57955">
    <time>1971-01-13T13:20:41Z</time>
  <cmt>extensions = 1.03</cmt>
    </trkpt>
    <trkpt lat="27.746975" lon="-15.579597">
    <time>1971-01-13T13:20:53Z</time>
  <cmt>extensions = 0.89</cmt>
    </trkpt>
    <trkpt lat="27.747015" lon="-15.579615">
    <time>1971-01-13T13:20:57Z</time>
  <cmt>extensions = 0.37</cmt>
    </trkpt>
    <trkpt lat="27.747013" lon="-15.579613">
    <time>1971-01-13T13:20:57Z</time>
  <cmt>extensions = 0.01</cmt>
    </trkpt>
    <trkpt lat="27.747084" lon="-15.579646">
    <time>1971-01-13T13:21:05Z</time>
  <cmt>extensions = 0.04</cmt>
    </trkpt>
    <trkpt lat="27.747316" lon="-15.579767">
    <time>1971-01-13T13:21:30Z</time>
  <cmt>extensions = 1.35</cmt>
    </trkpt>
    <trkpt lat="27.747553" lon="-15.579913">
    <time>1971-01-13T13:21:57Z</time>
  <cmt>extensions = 1.31</cmt>
    </trkpt>
    <trkpt lat="27.747629" lon="-15.579984">
    <time>1971-01-13T13:22:07Z</time>
  <cmt>extensions = 1.10</cmt>
    </trkpt>
    <trkpt lat="27.747697" lon="-15.580056">
    <time>1971-01-13T13:22:17Z</time>
  <cmt>extensions = 1.30</cmt>
    </trkpt>
    <trkpt lat="27.74768" lon="-15.580096">
    <time>1971-01-13T13:22:20Z</time>
  <cmt>extensions = 0.34</cmt>
    </trkpt>
    <trkpt lat="27.74769" lon="-15.580102">
    <time>1971-01-13T13:22:22Z</time>
  <cmt>extensions = 0.03</cmt>
    </trkpt>
    <trkpt lat="27.74789" lon="-15.580264">
    <time>1971-01-13T13:22:46Z</time>
  <cmt>extensions = 1.25</cmt>
    </trkpt>
    <trkpt lat="27.748038" lon="-15.580417">
    <time>1971-01-13T13:23:06Z</time>
  <cmt>extensions = 1.12</cmt>
    </trkpt>
    <trkpt lat="27.748211" lon="-15.580552">
    <time>1971-01-13T13:23:27Z</time>
  <cmt>extensions = 1.17</cmt>
    </trkpt>
    <trkpt lat="27.748208" lon="-15.580554">
    <time>1971-01-13T13:23:28Z</time>
  <cmt>extensions = 0.38</cmt>
    </trkpt>
    <trkpt lat="27.748189" lon="-15.580567">
    <time>1971-01-13T13:23:30Z</time>
  <cmt>extensions = 0.82</cmt>
    </trkpt>
    <trkpt lat="27.748371" lon="-15.580771">
    <time>1971-01-13T13:23:55Z</time>
  <cmt>extensions = 1.24</cmt>
    </trkpt>
    <trkpt lat="27.748482" lon="-15.580924">
    <time>1971-01-13T13:24:13Z</time>
  <cmt>extensions = 1.08</cmt>
    </trkpt>
    <trkpt lat="27.748554" lon="-15.581146">
    <time>1971-01-13T13:24:34Z</time>
  <cmt>extensions = 1.16</cmt>
    </trkpt>
    <trkpt lat="27.748622" lon="-15.581301">
    <time>1971-01-13T13:24:49Z</time>
  <cmt>extensions = 0.90</cmt>
    </trkpt>
    <trkpt lat="27.748619" lon="-15.581303">
    <time>1971-01-13T13:24:49Z</time>
  <cmt>extensions = 0.01</cmt>
    </trkpt>
    <trkpt lat="27.748615" lon="-15.581314">
    <time>1971-01-13T13:24:51Z</time>
  <cmt>extensions = 0.04</cmt>
    </trkpt>
    <trkpt lat="27.748644" lon="-15.581402">
    <time>1971-01-13T13:24:59Z</time>
  <cmt>extensions = 1.16</cmt>
    </trkpt>
    <trkpt lat="27.748632" lon="-15.581443">
    <time>1971-01-13T13:25:03Z</time>
  <cmt>extensions = 0.22</cmt>
    </trkpt>
    <trkpt lat="27.748631" lon="-15.581449">
    <time>1971-01-13T13:25:03Z</time>
  <cmt>extensions = 0.20</cmt>
    </trkpt>
    <trkpt lat="27.748629" lon="-15.581691">
    <time>1971-01-13T13:25:25Z</time>
  <cmt>extensions = 1.08</cmt>
    </trkpt>
    <trkpt lat="27.748631" lon="-15.581764">
    <time>1971-01-13T13:25:31Z</time>
  <cmt>extensions = 0.48</cmt>
    </trkpt>
    <trkpt lat="27.748668" lon="-15.58201">
    <time>1971-01-13T13:25:53Z</time>
  <cmt>extensions = 1.29</cmt>
    </trkpt>
    <trkpt lat="27.74865" lon="-15.58229">
    <time>1971-01-13T13:26:18Z</time>
  <cmt>extensions = 1.26</cmt>
    </trkpt>
    <trkpt lat="27.748671" lon="-15.582581">
    <time>1971-01-13T13:26:44Z</time>
  <cmt>extensions = 1.31</cmt>
    </trkpt>
    <trkpt lat="27.74867" lon="-15.582861">
    <time>1971-01-13T13:27:09Z</time>
  <cmt>extensions = 1.25</cmt>
    </trkpt>
    <trkpt lat="27.748653" lon="-15.583128">
    <time>1971-01-13T13:27:33Z</time>
  <cmt>extensions = 1.32</cmt>
    </trkpt>
    <trkpt lat="27.748654" lon="-15.583312">
    <time>1971-01-13T13:27:49Z</time>
  <cmt>extensions = 1.29</cmt>
    </trkpt>
    <trkpt lat="27.74858" lon="-15.583588">
    <time>1971-01-13T13:28:15Z</time>
  <cmt>extensions = 1.24</cmt>
    </trkpt>
    <trkpt lat="27.748516" lon="-15.583839">
    <time>1971-01-13T13:28:38Z</time>
  <cmt>extensions = 1.29</cmt>
    </trkpt>
    <trkpt lat="27.748528" lon="-15.583963">
    <time>1971-01-13T13:28:49Z</time>
  <cmt>extensions = 1.23</cmt>
    </trkpt>
    <trkpt lat="27.748511" lon="-15.584155">
    <time>1971-01-13T13:29:06Z</time>
  <cmt>extensions = 0.91</cmt>
    </trkpt>
    <trkpt lat="27.748504" lon="-15.584189">
    <time>1971-01-13T13:29:09Z</time>
  <cmt>extensions = 0.23</cmt>
    </trkpt>
    <trkpt lat="27.748491" lon="-15.584276">
    <time>1971-01-13T13:29:17Z</time>
  <cmt>extensions = 0.28</cmt>
    </trkpt>
    <trkpt lat="27.74847" lon="-15.584366">
    <time>1971-01-13T13:29:25Z</time>
  <cmt>extensions = 0.61</cmt>
    </trkpt>
    <trkpt lat="27.74845" lon="-15.584454">
    <time>1971-01-13T13:29:33Z</time>
  <cmt>extensions = 0.47</cmt>
    </trkpt>
    <trkpt lat="27.748415" lon="-15.584717">
    <time>1971-01-13T13:29:57Z</time>
  <cmt>extensions = 1.25</cmt>
    </trkpt>
    <trkpt lat="27.748366" lon="-15.584835">
    <time>1971-01-13T13:30:08Z</time>
  <cmt>extensions = 0.76</cmt>
    </trkpt>
    <trkpt lat="27.748365" lon="-15.58485">
    <time>1971-01-13T13:30:09Z</time>
  <cmt>extensions = 0.08</cmt>
    </trkpt>
    <trkpt lat="27.748356" lon="-15.584991">
    <time>1971-01-13T13:30:22Z</time>
  <cmt>extensions = 0.87</cmt>
    </trkpt>
    <trkpt lat="27.748349" lon="-15.585028">
    <time>1971-01-13T13:30:25Z</time>
  <cmt>extensions = 1.24</cmt>
    </trkpt>
    <trkpt lat="27.748368" lon="-15.585191">
    <time>1971-01-13T13:30:40Z</time>
  <cmt>extensions = 0.77</cmt>
    </trkpt>
    <trkpt lat="27.748369" lon="-15.585185">
    <time>1971-01-13T13:30:40Z</time>
  <cmt>extensions = 0.03</cmt>
    </trkpt>
    <trkpt lat="27.748347" lon="-15.585181">
    <time>1971-01-13T13:30:43Z</time>
  <cmt>extensions = 1.24</cmt>
    </trkpt>
    <trkpt lat="27.748315" lon="-15.585237">
    <time>1971-01-13T13:30:49Z</time>
  <cmt>extensions = 1.31</cmt>
    </trkpt>
    <trkpt lat="27.748231" lon="-15.585492">
    <time>1971-01-13T13:31:13Z</time>
  <cmt>extensions = 1.28</cmt>
    </trkpt>
    <trkpt lat="27.748193" lon="-15.58559">
    <time>1971-01-13T13:31:22Z</time>
  <cmt>extensions = 0.59</cmt>
    </trkpt>
    <trkpt lat="27.748181" lon="-15.585656">
    <time>1971-01-13T13:31:28Z</time>
  <cmt>extensions = 0.44</cmt>
    </trkpt>
    <trkpt lat="27.74817" lon="-15.585687">
    <time>1971-01-13T13:31:31Z</time>
  <cmt>extensions = 1.10</cmt>
    </trkpt>
    <trkpt lat="27.748143" lon="-15.585714">
    <time>1971-01-13T13:31:35Z</time>
  <cmt>extensions = 1.34</cmt>
    </trkpt>
    <trkpt lat="27.748142" lon="-15.58578">
    <time>1971-01-13T13:31:40Z</time>
  <cmt>extensions = 0.93</cmt>
    </trkpt>
    <trkpt lat="27.748228" lon="-15.585924">
    <time>1971-01-13T13:31:56Z</time>
  <cmt>extensions = 0.95</cmt>
    </trkpt>
    <trkpt lat="27.748258" lon="-15.585985">
    <time>1971-01-13T13:32:02Z</time>
  <cmt>extensions = 0.30</cmt>
    </trkpt>
    <trkpt lat="27.748242" lon="-15.585967">
    <time>1971-01-13T13:32:04Z</time>
  <cmt>extensions = 0.09</cmt>
    </trkpt>
    <trkpt lat="27.748225" lon="-15.585909">
    <time>1971-01-13T13:32:10Z</time>
  <cmt>extensions = 0.33</cmt>
    </trkpt>
    <trkpt lat="27.748221" lon="-15.585911">
    <time>1971-01-13T13:32:10Z</time>
  <cmt>extensions = 0.02</cmt>
    </trkpt>
    <trkpt lat="27.748239" lon="-15.585961">
    <time>1971-01-13T13:32:15Z</time>
  <cmt>extensions = 1.06</cmt>
    </trkpt>
    <trkpt lat="27.748253" lon="-15.586009">
    <time>1971-01-13T13:32:19Z</time>
  <cmt>extensions = 1.24</cmt>
    </trkpt>
    <trkpt lat="27.748172" lon="-15.586272">
    <time>1971-01-13T13:32:44Z</time>
  <cmt>extensions = 1.37</cmt>
    </trkpt>
    <trkpt lat="27.748159" lon="-15.586356">
    <time>1971-01-13T13:32:52Z</time>
  <cmt>extensions = 0.44</cmt>
    </trkpt>
    <trkpt lat="27.748147" lon="-15.586387">
    <time>1971-01-13T13:32:55Z</time>
  <cmt>extensions = 0.14</cmt>
    </trkpt>
    <trkpt lat="27.748149" lon="-15.586404">
    <time>1971-01-13T13:32:56Z</time>
  <cmt>extensions = 0.01</cmt>
    </trkpt>
    <trkpt lat="27.748144" lon="-15.586414">
    <time>1971-01-13T13:32:57Z</time>
  <cmt>extensions = 0.02</cmt>
    </trkpt>
    <trkpt lat="27.748149" lon="-15.586423">
    <time>1971-01-13T13:32:58Z</time>
  <cmt>extensions = 0.05</cmt>
    </trkpt>
    <trkpt lat="27.748123" lon="-15.586384">
    <time>1971-01-13T13:33:02Z</time>
  <cmt>extensions = 0.28</cmt>
    </trkpt>
    <trkpt lat="27.748097" lon="-15.586391">
    <time>1971-01-13T13:33:05Z</time>
  <cmt>extensions = 0.14</cmt>
    </trkpt>
    <trkpt lat="27.748017" lon="-15.586495">
    <time>1971-01-13T13:33:17Z</time>
  <cmt>extensions = 0.75</cmt>
    </trkpt>
    <trkpt lat="27.747933" lon="-15.586657">
    <time>1971-01-13T13:33:34Z</time>
  <cmt>extensions = 0.88</cmt>
    </trkpt>
    <trkpt lat="27.747846" lon="-15.586909">
    <time>1971-01-13T13:33:58Z</time>
  <cmt>extensions = 1.40</cmt>
    </trkpt>
    <trkpt lat="27.747759" lon="-15.587155">
    <time>1971-01-13T13:34:21Z</time>
  <cmt>extensions = 1.45</cmt>
    </trkpt>
    <trkpt lat="27.747624" lon="-15.587317">
    <time>1971-01-13T13:34:41Z</time>
  <cmt>extensions = 1.22</cmt>
    </trkpt>
    <trkpt lat="27.747627" lon="-15.587315">
    <time>1971-01-13T13:34:41Z</time>
  <cmt>extensions = 0.04</cmt>
    </trkpt>
    <trkpt lat="27.747616" lon="-15.587346">
    <time>1971-01-13T13:34:44Z</time>
  <cmt>extensions = 1.10</cmt>
    </trkpt>
    <trkpt lat="27.747459" lon="-15.587574">
    <time>1971-01-13T13:35:10Z</time>
  <cmt>extensions = 1.36</cmt>
    </trkpt>
    <trkpt lat="27.747372" lon="-15.587828">
    <time>1971-01-13T13:35:34Z</time>
  <cmt>extensions = 1.34</cmt>
    </trkpt>
    <trkpt lat="27.747387" lon="-15.58792">
    <time>1971-01-13T13:35:42Z</time>
  <cmt>extensions = 0.54</cmt>
    </trkpt>
    <trkpt lat="27.747344" lon="-15.588182">
    <time>1971-01-13T13:36:06Z</time>
  <cmt>extensions = 1.46</cmt>
    </trkpt>
    <trkpt lat="27.74723" lon="-15.588465">
    <time>1971-01-13T13:36:33Z</time>
  <cmt>extensions = 1.39</cmt>
    </trkpt>
    <trkpt lat="27.747162" lon="-15.588727">
    <time>1971-01-13T13:36:58Z</time>
  <cmt>extensions = 1.28</cmt>
    </trkpt>
    <trkpt lat="27.747159" lon="-15.588778">
    <time>1971-01-13T13:37:02Z</time>
  <cmt>extensions = 0.46</cmt>
    </trkpt>
    <trkpt lat="27.747093" lon="-15.588921">
    <time>1971-01-13T13:37:16Z</time>
  <cmt>extensions = 1.22</cmt>
    </trkpt>
    <trkpt lat="27.74702" lon="-15.58919">
    <time>1971-01-13T13:37:41Z</time>
  <cmt>extensions = 1.26</cmt>
    </trkpt>
    <trkpt lat="27.747066" lon="-15.589416">
    <time>1971-01-13T13:38:02Z</time>
  <cmt>extensions = 1.34</cmt>
    </trkpt>
    <trkpt lat="27.747056" lon="-15.58953">
    <time>1971-01-13T13:38:12Z</time>
  <cmt>extensions = 0.66</cmt>
    </trkpt>
    <trkpt lat="27.747058" lon="-15.58957">
    <time>1971-01-13T13:38:16Z</time>
  <cmt>extensions = 0.23</cmt>
    </trkpt>
    <trkpt lat="27.747074" lon="-15.589648">
    <time>1971-01-13T13:38:23Z</time>
  <cmt>extensions = 0.46</cmt>
    </trkpt>
    <trkpt lat="27.747044" lon="-15.589907">
    <time>1971-01-13T13:38:46Z</time>
  <cmt>extensions = 1.29</cmt>
    </trkpt>
    <trkpt lat="27.746954" lon="-15.590138">
    <time>1971-01-13T13:39:08Z</time>
  <cmt>extensions = 1.24</cmt>
    </trkpt>
    <trkpt lat="27.74685" lon="-15.590334">
    <time>1971-01-13T13:39:29Z</time>
  <cmt>extensions = 1.25</cmt>
    </trkpt>
    <trkpt lat="27.746777" lon="-15.590573">
    <time>1971-01-13T13:39:51Z</time>
  <cmt>extensions = 1.38</cmt>
    </trkpt>
    <trkpt lat="27.74673" lon="-15.590894">
    <time>1971-01-13T13:40:20Z</time>
  <cmt>extensions = 1.46</cmt>
    </trkpt>
    <trkpt lat="27.746757" lon="-15.591181">
    <time>1971-01-13T13:40:45Z</time>
  <cmt>extensions = 1.35</cmt>
    </trkpt>
    <trkpt lat="27.746634" lon="-15.591482">
    <time>1971-01-13T13:41:15Z</time>
  <cmt>extensions = 1.42</cmt>
    </trkpt>
    <trkpt lat="27.746621" lon="-15.591526">
    <time>1971-01-13T13:41:19Z</time>
  <cmt>extensions = 1.14</cmt>
    </trkpt>
    <trkpt lat="27.746531" lon="-15.591688">
    <time>1971-01-13T13:41:36Z</time>
  <cmt>extensions = 1.26</cmt>
    </trkpt>
    <trkpt lat="27.746515" lon="-15.591717">
    <time>1971-01-13T13:41:39Z</time>
  <cmt>extensions = 1.12</cmt>
    </trkpt>
    <trkpt lat="27.746339" lon="-15.591917">
    <time>1971-01-13T13:42:04Z</time>
  <cmt>extensions = 1.26</cmt>
    </trkpt>
    <trkpt lat="27.74625" lon="-15.59222">
    <time>1971-01-13T13:42:32Z</time>
  <cmt>extensions = 1.37</cmt>
    </trkpt>
    <trkpt lat="27.746157" lon="-15.592428">
    <time>1971-01-13T13:42:53Z</time>
  <cmt>extensions = 1.35</cmt>
    </trkpt>
    <trkpt lat="27.746155" lon="-15.592462">
    <time>1971-01-13T13:42:56Z</time>
  <cmt>extensions = 1.12</cmt>
    </trkpt>
    <trkpt lat="27.746146" lon="-15.592501">
    <time>1971-01-13T13:42:59Z</time>
  <cmt>extensions = 1.32</cmt>
    </trkpt>
    <trkpt lat="27.746098" lon="-15.592508">
    <time>1971-01-13T13:43:04Z</time>
  <cmt>extensions = 0.36</cmt>
    </trkpt>
    <trkpt lat="27.74609" lon="-15.592498">
    <time>1971-01-13T13:43:05Z</time>
  <cmt>extensions = 0.06</cmt>
    </trkpt>
    <trkpt lat="27.746099" lon="-15.592495">
    <time>1971-01-13T13:43:06Z</time>
  <cmt>extensions = 0.09</cmt>
    </trkpt>
    <trkpt lat="27.746091" lon="-15.592513">
    <time>1971-01-13T13:43:08Z</time>
  <cmt>extensions = 0.06</cmt>
    </trkpt>
    <trkpt lat="27.745997" lon="-15.592647">
    <time>1971-01-13T13:43:23Z</time>
  <cmt>extensions = 0.94</cmt>
    </trkpt>
    <trkpt lat="27.745892" lon="-15.592787">
    <time>1971-01-13T13:43:39Z</time>
  <cmt>extensions = 0.95</cmt>
    </trkpt>
    <trkpt lat="27.745814" lon="-15.592926">
    <time>1971-01-13T13:43:54Z</time>
  <cmt>extensions = 0.77</cmt>
    </trkpt>
    <trkpt lat="27.745811" lon="-15.592927">
    <time>1971-01-13T13:43:54Z</time>
  <cmt>extensions = 0.07</cmt>
    </trkpt>
    <trkpt lat="27.74574" lon="-15.592978">
    <time>1971-01-13T13:44:03Z</time>
  <cmt>extensions = 0.85</cmt>
    </trkpt>
    <trkpt lat="27.745675" lon="-15.592977">
    <time>1971-01-13T13:44:09Z</time>
  <cmt>extensions = 1.45</cmt>
    </trkpt>
    <trkpt lat="27.745644" lon="-15.592974">
    <time>1971-01-13T13:44:12Z</time>
  <cmt>extensions = 1.15</cmt>
    </trkpt>
    <trkpt lat="27.745605" lon="-15.592998">
    <time>1971-01-13T13:44:17Z</time>
  <cmt>extensions = 0.82</cmt>
    </trkpt>
    <trkpt lat="27.745532" lon="-15.593065">
    <time>1971-01-13T13:44:26Z</time>
  <cmt>extensions = 0.81</cmt>
    </trkpt>
    <trkpt lat="27.745517" lon="-15.593093">
    <time>1971-01-13T13:44:29Z</time>
  <cmt>extensions = 1.08</cmt>
    </trkpt>
    <trkpt lat="27.745508" lon="-15.593312">
    <time>1971-01-13T13:44:48Z</time>
  <cmt>extensions = 1.27</cmt>
    </trkpt>
    <trkpt lat="27.745482" lon="-15.593569">
    <time>1971-01-13T13:45:11Z</time>
  <cmt>extensions = 1.27</cmt>
    </trkpt>
    <trkpt lat="27.745481" lon="-15.59359">
    <time>1971-01-13T13:45:13Z</time>
  <cmt>extensions = 1.04</cmt>
    </trkpt>
    <trkpt lat="27.745487" lon="-15.593636">
    <time>1971-01-13T13:45:17Z</time>
  <cmt>extensions = 1.15</cmt>
    </trkpt>
    <trkpt lat="27.745476" lon="-15.593767">
    <time>1971-01-13T13:45:29Z</time>
  <cmt>extensions = 1.18</cmt>
    </trkpt>
    <trkpt lat="27.745467" lon="-15.593814">
    <time>1971-01-13T13:45:33Z</time>
  <cmt>extensions = 1.18</cmt>
    </trkpt>
    <trkpt lat="27.745499" lon="-15.594114">
    <time>1971-01-13T13:46:00Z</time>
  <cmt>extensions = 1.24</cmt>
    </trkpt>
    <trkpt lat="27.745501" lon="-15.594322">
    <time>1971-01-13T13:46:18Z</time>
  <cmt>extensions = 1.14</cmt>
    </trkpt>
    <trkpt lat="27.745528" lon="-15.594469">
    <time>1971-01-13T13:46:32Z</time>
  <cmt>extensions = 1.14</cmt>
    </trkpt>
    <trkpt lat="27.745543" lon="-15.594681">
    <time>1971-01-13T13:46:51Z</time>
  <cmt>extensions = 1.31</cmt>
    </trkpt>
    <trkpt lat="27.745543" lon="-15.594698">
    <time>1971-01-13T13:46:52Z</time>
  <cmt>extensions = 0.84</cmt>
    </trkpt>
    <trkpt lat="27.745536" lon="-15.594723">
    <time>1971-01-13T13:46:54Z</time>
  <cmt>extensions = 0.86</cmt>
    </trkpt>
    <trkpt lat="27.745524" lon="-15.594933">
    <time>1971-01-13T13:47:13Z</time>
  <cmt>extensions = 1.30</cmt>
    </trkpt>
    <trkpt lat="27.745517" lon="-15.595">
    <time>1971-01-13T13:47:19Z</time>
  <cmt>extensions = 0.47</cmt>
    </trkpt>
    <trkpt lat="27.745526" lon="-15.595057">
    <time>1971-01-13T13:47:24Z</time>
  <cmt>extensions = 0.26</cmt>
    </trkpt>
    <trkpt lat="27.745513" lon="-15.595222">
    <time>1971-01-13T13:47:39Z</time>
  <cmt>extensions = 1.48</cmt>
    </trkpt>
    <trkpt lat="27.745547" lon="-15.595208">
    <time>1971-01-13T13:47:42Z</time>
  <cmt>extensions = 1.01</cmt>
    </trkpt>
    <trkpt lat="27.745433" lon="-15.595357">
    <time>1971-01-13T13:48:00Z</time>
  <cmt>extensions = 2.16</cmt>
    </trkpt>
    <trkpt lat="27.745427" lon="-15.59535">
    <time>1971-01-13T13:48:01Z</time>
  <cmt>extensions = 0.48</cmt>
    </trkpt>
    <trkpt lat="27.745412" lon="-15.595391">
    <time>1971-01-13T13:48:05Z</time>
  <cmt>extensions = 1.09</cmt>
    </trkpt>
    <trkpt lat="27.745383" lon="-15.595438">
    <time>1971-01-13T13:48:10Z</time>
  <cmt>extensions = 1.41</cmt>
    </trkpt>
    <trkpt lat="27.745375" lon="-15.595499">
    <time>1971-01-13T13:48:15Z</time>
  <cmt>extensions = 0.55</cmt>
    </trkpt>
    <trkpt lat="27.74536" lon="-15.595496">
    <time>1971-01-13T13:48:17Z</time>
  <cmt>extensions = 0.09</cmt>
    </trkpt>
    <trkpt lat="27.745315" lon="-15.595584">
    <time>1971-01-13T13:48:26Z</time>
  <cmt>extensions = 0.13</cmt>
    </trkpt>
    <trkpt lat="27.745314" lon="-15.595582">
    <time>1971-01-13T13:48:26Z</time>
  <cmt>extensions = 0.01</cmt>
    </trkpt>
    <trkpt lat="27.745284" lon="-15.595594">
    <time>1971-01-13T13:48:29Z</time>
  <cmt>extensions = 1.18</cmt>
    </trkpt>
    <trkpt lat="27.74511" lon="-15.595606">
    <time>1971-01-13T13:48:46Z</time>
  <cmt>extensions = 1.39</cmt>
    </trkpt>
    <trkpt lat="27.744993" lon="-15.595669">
    <time>1971-01-13T13:48:59Z</time>
  <cmt>extensions = 1.60</cmt>
    </trkpt>
    <trkpt lat="27.744958" lon="-15.595694">
    <time>1971-01-13T13:49:03Z</time>
  <cmt>extensions = 1.54</cmt>
    </trkpt>
    <trkpt lat="27.74486" lon="-15.595715">
    <time>1971-01-13T13:49:13Z</time>
  <cmt>extensions = 1.23</cmt>
    </trkpt>
    <trkpt lat="27.744806" lon="-15.595728">
    <time>1971-01-13T13:49:19Z</time>
  <cmt>extensions = 1.23</cmt>
    </trkpt>
    <trkpt lat="27.744686" lon="-15.595808">
    <time>1971-01-13T13:49:33Z</time>
  <cmt>extensions = 1.94</cmt>
    </trkpt>
    <trkpt lat="27.744681" lon="-15.595806">
    <time>1971-01-13T13:49:33Z</time>
  <cmt>extensions = 0.29</cmt>
    </trkpt>
    <trkpt lat="27.744588" lon="-15.595957">
    <time>1971-01-13T13:49:50Z</time>
  <cmt>extensions = 1.65</cmt>
    </trkpt>
    <trkpt lat="27.744462" lon="-15.596081">
    <time>1971-01-13T13:50:06Z</time>
  <cmt>extensions = 1.86</cmt>
    </trkpt>
    <trkpt lat="27.744412" lon="-15.596172">
    <time>1971-01-13T13:50:16Z</time>
  <cmt>extensions = 1.06</cmt>
    </trkpt>
    <trkpt lat="27.744449" lon="-15.596233">
    <time>1971-01-13T13:50:22Z</time>
  <cmt>extensions = 0.66</cmt>
    </trkpt>
    <trkpt lat="27.744472" lon="-15.59625">
    <time>1971-01-13T13:50:25Z</time>
  <cmt>extensions = 0.76</cmt>
    </trkpt>
    <trkpt lat="27.744457" lon="-15.596278">
    <time>1971-01-13T13:50:28Z</time>
  <cmt>extensions = 1.61</cmt>
    </trkpt>
    <trkpt lat="27.744453" lon="-15.59633">
    <time>1971-01-13T13:50:33Z</time>
  <cmt>extensions = 0.73</cmt>
    </trkpt>
    <trkpt lat="27.744385" lon="-15.596433">
    <time>1971-01-13T13:50:44Z</time>
  <cmt>extensions = 0.90</cmt>
    </trkpt>
    <trkpt lat="27.744323" lon="-15.596495">
    <time>1971-01-13T13:50:52Z</time>
  <cmt>extensions = 0.58</cmt>
    </trkpt>
    <trkpt lat="27.744314" lon="-15.596501">
    <time>1971-01-13T13:50:53Z</time>
  <cmt>extensions = 0.05</cmt>
    </trkpt>
    <trkpt lat="27.744313" lon="-15.596501">
    <time>1971-01-13T13:50:53Z</time>
  <cmt>extensions = 0.03</cmt>
    </trkpt>
    <trkpt lat="27.744226" lon="-15.596673">
    <time>1971-01-13T13:51:11Z</time>
  <cmt>extensions = 1.39</cmt>
    </trkpt>
    <trkpt lat="27.744181" lon="-15.596719">
    <time>1971-01-13T13:51:17Z</time>
  <cmt>extensions = 1.69</cmt>
    </trkpt>
    <trkpt lat="27.744062" lon="-15.596733">
    <time>1971-01-13T13:51:29Z</time>
  <cmt>extensions = 1.48</cmt>
    </trkpt>
    <trkpt lat="27.744033" lon="-15.59677">
    <time>1971-01-13T13:51:33Z</time>
  <cmt>extensions = 0.37</cmt>
    </trkpt>
    <trkpt lat="27.743999" lon="-15.596765">
    <time>1971-01-13T13:51:37Z</time>
  <cmt>extensions = 0.06</cmt>
    </trkpt>
    <trkpt lat="27.743944" lon="-15.596746">
    <time>1971-01-13T13:51:42Z</time>
  <cmt>extensions = 1.60</cmt>
    </trkpt>
    <trkpt lat="27.743887" lon="-15.59676">
    <time>1971-01-13T13:51:48Z</time>
  <cmt>extensions = 1.30</cmt>
    </trkpt>
    <trkpt lat="27.743783" lon="-15.596791">
    <time>1971-01-13T13:51:59Z</time>
  <cmt>extensions = 1.20</cmt>
    </trkpt>
    <trkpt lat="27.743729" lon="-15.596797">
    <time>1971-01-13T13:52:04Z</time>
  <cmt>extensions = 0.50</cmt>
    </trkpt>
    <trkpt lat="27.74363" lon="-15.596812">
    <time>1971-01-13T13:52:14Z</time>
  <cmt>extensions = 1.24</cmt>
    </trkpt>
    <trkpt lat="27.743603" lon="-15.596815">
    <time>1971-01-13T13:52:17Z</time>
  <cmt>extensions = 1.51</cmt>
    </trkpt>
    <trkpt lat="27.743461" lon="-15.596864">
    <time>1971-01-13T13:52:32Z</time>
  <cmt>extensions = 1.65</cmt>
    </trkpt>
    <trkpt lat="27.743411" lon="-15.596874">
    <time>1971-01-13T13:52:37Z</time>
  <cmt>extensions = 1.41</cmt>
    </trkpt>
    <trkpt lat="27.743315" lon="-15.596809">
    <time>1971-01-13T13:52:48Z</time>
  <cmt>extensions = 0.73</cmt>
    </trkpt>
    <trkpt lat="27.743319" lon="-15.596811">
    <time>1971-01-13T13:52:48Z</time>
  <cmt>extensions = 0.01</cmt>
    </trkpt>
    <trkpt lat="27.743324" lon="-15.596815">
    <time>1971-01-13T13:52:49Z</time>
  <cmt>extensions = 0.34</cmt>
    </trkpt>
    <trkpt lat="27.743255" lon="-15.596863">
    <time>1971-01-13T13:52:57Z</time>
  <cmt>extensions = 1.29</cmt>
    </trkpt>
    <trkpt lat="27.743221" lon="-15.596861">
    <time>1971-01-13T13:53:01Z</time>
  <cmt>extensions = 0.95</cmt>
    </trkpt>
    <trkpt lat="27.7431" lon="-15.596865">
    <time>1971-01-13T13:53:13Z</time>
  <cmt>extensions = 1.50</cmt>
    </trkpt>
    <trkpt lat="27.743059" lon="-15.596856">
    <time>1971-01-13T13:53:17Z</time>
  <cmt>extensions = 0.66</cmt>
    </trkpt>
    <trkpt lat="27.743064" lon="-15.596836">
    <time>1971-01-13T13:53:19Z</time>
  <cmt>extensions = 0.09</cmt>
    </trkpt>
    <trkpt lat="27.743071" lon="-15.59684">
    <time>1971-01-13T13:53:19Z</time>
  <cmt>extensions = 0.01</cmt>
    </trkpt>
    <trkpt lat="27.743071" lon="-15.596843">
    <time>1971-01-13T13:53:20Z</time>
  <cmt>extensions = 0.00</cmt>
    </trkpt>
    <trkpt lat="27.743061" lon="-15.596845">
    <time>1971-01-13T13:53:21Z</time>
  <cmt>extensions = 0.11</cmt>
    </trkpt>
    <trkpt lat="27.74288" lon="-15.596876">
    <time>1971-01-13T13:53:39Z</time>
  <cmt>extensions = 1.36</cmt>
    </trkpt>
    <trkpt lat="27.742852" lon="-15.596875">
    <time>1971-01-13T13:53:42Z</time>
  <cmt>extensions = 1.56</cmt>
    </trkpt>
    <trkpt lat="27.742727" lon="-15.596874">
    <time>1971-01-13T13:53:54Z</time>
  <cmt>extensions = 1.16</cmt>
    </trkpt>
    <trkpt lat="27.742645" lon="-15.596878">
    <time>1971-01-13T13:54:02Z</time>
  <cmt>extensions = 1.14</cmt>
    </trkpt>
    <trkpt lat="27.742534" lon="-15.596869">
    <time>1971-01-13T13:54:13Z</time>
  <cmt>extensions = 1.38</cmt>
    </trkpt>
    <trkpt lat="27.742492" lon="-15.596876">
    <time>1971-01-13T13:54:18Z</time>
  <cmt>extensions = 2.36</cmt>
    </trkpt>
    <trkpt lat="27.742292" lon="-15.596909">
    <time>1971-01-13T13:54:38Z</time>
  <cmt>extensions = 1.50</cmt>
    </trkpt>
    <trkpt lat="27.742091" lon="-15.596886">
    <time>1971-01-13T13:54:58Z</time>
  <cmt>extensions = 1.32</cmt>
    </trkpt>
    <trkpt lat="27.742069" lon="-15.596876">
    <time>1971-01-13T13:55:00Z</time>
  <cmt>extensions = 1.32</cmt>
    </trkpt>
    <trkpt lat="27.741857" lon="-15.596843">
    <time>1971-01-13T13:55:22Z</time>
  <cmt>extensions = 1.40</cmt>
    </trkpt>
    <trkpt lat="27.741801" lon="-15.596839">
    <time>1971-01-13T13:55:27Z</time>
  <cmt>extensions = 0.39</cmt>
    </trkpt>
    <trkpt lat="27.741688" lon="-15.596818">
    <time>1971-01-13T13:55:39Z</time>
  <cmt>extensions = 0.61</cmt>
    </trkpt>
    <trkpt lat="27.741503" lon="-15.596748">
    <time>1971-01-13T13:55:58Z</time>
  <cmt>extensions = 1.55</cmt>
    </trkpt>
    <trkpt lat="27.741451" lon="-15.596695">
    <time>1971-01-13T13:56:05Z</time>
  <cmt>extensions = 0.56</cmt>
    </trkpt>
  </trkseg>
</trk>
</gpx>
